sensor_id;sensor_type;location;lat;lon;timestamp;temperature;humidity
2997;DHT22;1508;48.744;9.110;2023-04-25T00:56:42;7.80;99.90
2997;DHT22;1508;48.744;9.110;2023-04-25T00:59:28;7.90;99.90
2997;DHT22;1508;48.744;9.110;2023-04-25T01:02:14;7.90;99.90
2997;DHT22;1508;48.744;9.110;2023-04-25T01:05:00;8.00;99.90
2997;DHT22;1508;48.744;9.110;2023-04-25T01:07:45;8.00;99.90
2997;DHT22;1508;48.744;9.110;2023-04-25T01:10:31;8.00;99.90
2997;DHT22;1508;48.744;9.110;2023-04-25T01:13:17;7.90;99.90
2997;DHT22;1508;48.744;9.110;2023-04-25T01:16:02;7.90;99.90
2997;DHT22;1508;48.744;9.110;2023-04-25T01:18:48;8.00;99.90
2997;DHT22;1508;48.744;9.110;2023-04-25T01:21:34;8.00;99.90
2997;DHT22;1508;48.744;9.110;2023-04-25T01:24:20;8.00;99.90
2997;DHT22;1508;48.744;9.110;2023-04-25T01:27:06;8.00;99.90
2997;DHT22;1508;48.744;9.110;2023-04-25T01:29:53;8.00;99.90
2997;DHT22;1508;48.744;9.110;2023-04-25T01:32:39;8.00;99.90
2997;DHT22;1508;48.744;9.110;2023-04-25T01:35:25;8.00;99.90
2997;DHT22;1508;48.744;9.110;2023-04-25T01:38:11;7.90;99.90
2997;DHT22;1508;48.744;9.110;2023-04-25T01:40:57;7.80;99.90
2997;DHT22;1508;48.744;9.110;2023-04-25T01:43:43;7.70;99.90
2997;DHT22;1508;48.744;9.110;2023-04-25T01:46:29;7.80;99.90
2997;DHT22;1508;48.744;9.110;2023-04-25T01:49:15;7.90;99.90
2997;DHT22;1508;48.744;9.110;2023-04-25T01:52:00;7.90;99.90
2997;DHT22;1508;48.744;9.110;2023-04-25T01:54:46;7.80;99.90
2997;DHT22;1508;48.744;9.110;2023-04-25T01:57:32;7.90;99.90
2997;DHT22;1508;48.744;9.110;2023-04-25T02:00:18;7.80;99.90
2997;DHT22;1508;48.744;9.110;2023-04-25T02:03:04;7.90;99.90
2997;DHT22;1508;48.744;9.110;2023-04-25T02:05:50;7.80;99.90
2997;DHT22;1508;48.744;9.110;2023-04-25T02:08:36;7.80;99.90
2997;DHT22;1508;48.744;9.110;2023-04-25T02:11:22;7.70;99.90
2997;DHT22;1508;48.744;9.110;2023-04-25T02:14:07;7.70;99.90
2997;DHT22;1508;48.744;9.110;2023-04-25T02:16:53;7.60;99.90
2997;DHT22;1508;48.744;9.110;2023-04-25T02:19:39;7.60;99.90
2997;DHT22;1508;48.744;9.110;2023-04-25T02:22:25;7.60;99.90
2997;DHT22;1508;48.744;9.110;2023-04-25T02:25:11;7.40;99.90
2997;DHT22;1508;48.744;9.110;2023-04-25T02:27:56;7.40;99.90
2997;DHT22;1508;48.744;9.110;2023-04-25T02:30:42;7.40;99.90
2997;DHT22;1508;48.744;9.110;2023-04-25T02:33:28;7.20;99.90
2997;DHT22;1508;48.744;9.110;2023-04-25T02:36:14;7.10;99.90
2997;DHT22;1508;48.744;9.110;2023-04-25T02:39:00;7.00;99.90
2997;DHT22;1508;48.744;9.110;2023-04-25T02:41:45;6.90;99.90
2997;DHT22;1508;48.744;9.110;2023-04-25T02:44:31;6.90;99.90
2997;DHT22;1508;48.744;9.110;2023-04-25T02:47:17;6.80;99.90
2997;DHT22;1508;48.744;9.110;2023-04-25T02:50:03;6.80;99.90
2997;DHT22;1508;48.744;9.110;2023-04-25T02:52:49;6.80;99.90
2997;DHT22;1508;48.744;9.110;2023-04-25T02:55:34;6.80;99.90
2997;DHT22;1508;48.744;9.110;2023-04-25T02:58:20;6.70;99.90
2997;DHT22;1508;48.744;9.110;2023-04-25T03:01:06;6.60;99.90
2997;DHT22;1508;48.744;9.110;2023-04-25T03:03:52;6.60;99.90
2997;DHT22;1508;48.744;9.110;2023-04-25T03:06:37;6.50;99.90
2997;DHT22;1508;48.744;9.110;2023-04-25T03:09:23;6.60;99.90
2997;DHT22;1508;48.744;9.110;2023-04-25T03:12:09;6.60;99.90
2997;DHT22;1508;48.744;9.110;2023-04-25T03:14:55;6.60;99.90
2997;DHT22;1508;48.744;9.110;2023-04-25T03:17:40;6.60;99.90
2997;DHT22;1508;48.744;9.110;2023-04-25T03:20:26;6.60;99.90
2997;DHT22;1508;48.744;9.110;2023-04-25T03:23:12;6.60;99.90
2997;DHT22;1508;48.744;9.110;2023-04-25T03:25:57;6.70;99.90
2997;DHT22;1508;48.744;9.110;2023-04-25T03:28:43;6.80;99.90
2997;DHT22;1508;48.744;9.110;2023-04-25T03:31:29;6.80;99.90
2997;DHT22;1508;48.744;9.110;2023-04-25T03:34:15;6.90;99.90
2997;DHT22;1508;48.744;9.110;2023-04-25T03:37:00;6.90;99.90
2997;DHT22;1508;48.744;9.110;2023-04-25T03:39:46;7.00;99.90
2997;DHT22;1508;48.744;9.110;2023-04-25T03:42:32;7.00;99.90
2997;DHT22;1508;48.744;9.110;2023-04-25T03:45:18;6.90;99.90
2997;DHT22;1508;48.744;9.110;2023-04-25T03:48:03;6.90;99.90
2997;DHT22;1508;48.744;9.110;2023-04-25T03:50:49;6.80;99.90
2997;DHT22;1508;48.744;9.110;2023-04-25T03:53:35;6.80;99.90
2997;DHT22;1508;48.744;9.110;2023-04-25T03:56:21;6.70;99.90
2997;DHT22;1508;48.744;9.110;2023-04-25T03:59:06;6.80;99.90
2997;DHT22;1508;48.744;9.110;2023-04-25T04:01:53;6.80;99.90
2997;DHT22;1508;48.744;9.110;2023-04-25T04:04:39;6.80;99.90
2997;DHT22;1508;48.744;9.110;2023-04-25T04:07:25;6.80;99.90
2997;DHT22;1508;48.744;9.110;2023-04-25T04:10:11;6.70;99.90
2997;DHT22;1508;48.744;9.110;2023-04-25T04:12:57;6.60;99.90
2997;DHT22;1508;48.744;9.110;2023-04-25T04:15:42;6.60;99.90
2997;DHT22;1508;48.744;9.110;2023-04-25T04:18:28;6.50;99.90
2997;DHT22;1508;48.744;9.110;2023-04-25T04:21:14;6.40;99.90
2997;DHT22;1508;48.744;9.110;2023-04-25T04:24:00;6.40;99.90
2997;DHT22;1508;48.744;9.110;2023-04-25T04:26:45;6.30;99.90
2997;DHT22;1508;48.744;9.110;2023-04-25T04:29:31;6.30;99.90
2997;DHT22;1508;48.744;9.110;2023-04-25T04:32:17;6.30;99.90
2997;DHT22;1508;48.744;9.110;2023-04-25T04:35:03;6.40;99.90
2997;DHT22;1508;48.744;9.110;2023-04-25T04:37:49;6.40;99.90
2997;DHT22;1508;48.744;9.110;2023-04-25T04:40:35;6.50;99.90
2997;DHT22;1508;48.744;9.110;2023-04-25T04:43:21;6.50;99.90
2997;DHT22;1508;48.744;9.110;2023-04-25T04:46:06;6.50;99.90
2997;DHT22;1508;48.744;9.110;2023-04-25T04:48:52;6.50;99.90
2997;DHT22;1508;48.744;9.110;2023-04-25T04:51:38;6.60;99.90
2997;DHT22;1508;48.744;9.110;2023-04-25T04:54:23;6.60;99.90
2997;DHT22;1508;48.744;9.110;2023-04-25T04:57:09;6.70;99.90
2997;DHT22;1508;48.744;9.110;2023-04-25T04:59:55;6.60;99.90
2997;DHT22;1508;48.744;9.110;2023-04-25T05:02:41;6.70;99.90
2997;DHT22;1508;48.744;9.110;2023-04-25T05:05:27;6.60;99.90
2997;DHT22;1508;48.744;9.110;2023-04-25T05:08:12;6.60;99.90
2997;DHT22;1508;48.744;9.110;2023-04-25T05:10:58;6.70;99.90
2997;DHT22;1508;48.744;9.110;2023-04-25T05:13:44;6.70;99.90
2997;DHT22;1508;48.744;9.110;2023-04-25T05:16:29;6.70;99.90
2997;DHT22;1508;48.744;9.110;2023-04-25T05:19:15;6.80;99.90
2997;DHT22;1508;48.744;9.110;2023-04-25T05:22:01;6.90;99.90
2997;DHT22;1508;48.744;9.110;2023-04-25T05:24:47;7.00;99.90
2997;DHT22;1508;48.744;9.110;2023-04-25T05:27:33;7.20;99.90
2997;DHT22;1508;48.744;9.110;2023-04-25T05:30:19;7.20;99.90
2997;DHT22;1508;48.744;9.110;2023-04-25T05:33:04;7.20;99.90
2997;DHT22;1508;48.744;9.110;2023-04-25T05:35:50;7.40;99.90
2997;DHT22;1508;48.744;9.110;2023-04-25T05:38:36;7.40;99.90
2997;DHT22;1508;48.744;9.110;2023-04-25T05:41:22;7.40;99.90
2997;DHT22;1508;48.744;9.110;2023-04-25T05:44:07;7.60;99.90
2997;DHT22;1508;48.744;9.110;2023-04-25T05:46:53;7.60;99.90
2997;DHT22;1508;48.744;9.110;2023-04-25T05:49:39;7.80;99.90
2997;DHT22;1508;48.744;9.110;2023-04-25T05:52:25;7.80;99.90
2997;DHT22;1508;48.744;9.110;2023-04-25T05:55:10;7.70;99.90
2997;DHT22;1508;48.744;9.110;2023-04-25T05:57:56;7.40;99.90
2997;DHT22;1508;48.744;9.110;2023-04-25T06:00:42;7.20;99.90
2997;DHT22;1508;48.744;9.110;2023-04-25T06:03:29;7.10;99.90
2997;DHT22;1508;48.744;9.110;2023-04-25T06:06:15;6.90;99.90
2997;DHT22;1508;48.744;9.110;2023-04-25T06:09:01;6.90;99.90
2997;DHT22;1508;48.744;9.110;2023-04-25T06:11:47;7.00;99.90
2997;DHT22;1508;48.744;9.110;2023-04-25T06:14:35;7.00;99.90
2997;DHT22;1508;48.744;9.110;2023-04-25T06:17:21;7.00;99.90
2997;DHT22;1508;48.744;9.110;2023-04-25T06:20:07;7.00;99.90
2997;DHT22;1508;48.744;9.110;2023-04-25T06:22:53;7.00;99.90
2997;DHT22;1508;48.744;9.110;2023-04-25T06:25:39;7.30;99.90
2997;DHT22;1508;48.744;9.110;2023-04-25T06:28:24;7.30;99.90
2997;DHT22;1508;48.744;9.110;2023-04-25T06:31:10;7.40;99.90
2997;DHT22;1508;48.744;9.110;2023-04-25T06:33:56;7.40;99.90
2997;DHT22;1508;48.744;9.110;2023-04-25T06:36:42;7.40;99.90
2997;DHT22;1508;48.744;9.110;2023-04-25T06:39:27;7.40;99.90
2997;DHT22;1508;48.744;9.110;2023-04-25T06:42:13;7.60;99.90
2997;DHT22;1508;48.744;9.110;2023-04-25T06:44:59;7.40;99.90
2997;DHT22;1508;48.744;9.110;2023-04-25T06:47:45;7.10;99.90
2997;DHT22;1508;48.744;9.110;2023-04-25T06:50:30;6.80;99.90
2997;DHT22;1508;48.744;9.110;2023-04-25T06:53:16;6.80;99.90
2997;DHT22;1508;48.744;9.110;2023-04-25T06:56:02;6.70;99.90
2997;DHT22;1508;48.744;9.110;2023-04-25T06:58:48;6.60;99.90
2997;DHT22;1508;48.744;9.110;2023-04-25T07:01:33;6.60;99.90
2997;DHT22;1508;48.744;9.110;2023-04-25T07:04:19;6.50;99.90
2997;DHT22;1508;48.744;9.110;2023-04-25T07:07:05;6.60;99.90
2997;DHT22;1508;48.744;9.110;2023-04-25T07:09:50;6.60;99.90
2997;DHT22;1508;48.744;9.110;2023-04-25T07:12:36;6.60;99.90
2997;DHT22;1508;48.744;9.110;2023-04-25T07:15:22;6.70;99.90
2997;DHT22;1508;48.744;9.110;2023-04-25T07:18:08;6.70;99.90
2997;DHT22;1508;48.744;9.110;2023-04-25T07:20:53;6.80;99.90
2997;DHT22;1508;48.744;9.110;2023-04-25T07:23:39;6.70;99.90
2997;DHT22;1508;48.744;9.110;2023-04-25T07:26:25;6.50;99.90
2997;DHT22;1508;48.744;9.110;2023-04-25T07:29:11;6.40;99.90
2997;DHT22;1508;48.744;9.110;2023-04-25T07:31:56;6.50;99.90
2997;DHT22;1508;48.744;9.110;2023-04-25T07:34:42;6.50;99.90
2997;DHT22;1508;48.744;9.110;2023-04-25T07:37:28;6.50;99.90
2997;DHT22;1508;48.744;9.110;2023-04-25T07:40:14;6.60;99.90
2997;DHT22;1508;48.744;9.110;2023-04-25T07:42:59;6.50;99.90
2997;DHT22;1508;48.744;9.110;2023-04-25T07:45:46;6.50;99.90
2997;DHT22;1508;48.744;9.110;2023-04-25T07:48:31;6.60;99.90
2997;DHT22;1508;48.744;9.110;2023-04-25T07:51:17;6.50;99.90
2997;DHT22;1508;48.744;9.110;2023-04-25T07:54:03;6.60;99.90
2997;DHT22;1508;48.744;9.110;2023-04-25T07:56:49;6.60;99.90
2997;DHT22;1508;48.744;9.110;2023-04-25T07:59:34;6.50;99.90
2997;DHT22;1508;48.744;9.110;2023-04-25T08:02:20;6.60;99.90
2997;DHT22;1508;48.744;9.110;2023-04-25T08:05:06;6.70;99.90
2997;DHT22;1508;48.744;9.110;2023-04-25T08:07:52;6.70;99.90
2997;DHT22;1508;48.744;9.110;2023-04-25T08:10:37;6.80;99.90
2997;DHT22;1508;48.744;9.110;2023-04-25T08:13:23;7.00;99.90
2997;DHT22;1508;48.744;9.110;2023-04-25T08:16:09;7.00;99.90
2997;DHT22;1508;48.744;9.110;2023-04-25T08:18:55;6.90;99.90
2997;DHT22;1508;48.744;9.110;2023-04-25T08:21:40;6.90;99.90
2997;DHT22;1508;48.744;9.110;2023-04-25T08:24:26;6.80;99.90
2997;DHT22;1508;48.744;9.110;2023-04-25T08:27:12;6.60;99.90
2997;DHT22;1508;48.744;9.110;2023-04-25T08:29:58;6.50;99.90
2997;DHT22;1508;48.744;9.110;2023-04-25T08:32:43;6.70;99.90
2997;DHT22;1508;48.744;9.110;2023-04-25T08:35:29;6.70;99.90
2997;DHT22;1508;48.744;9.110;2023-04-25T08:38:15;6.60;99.90
2997;DHT22;1508;48.744;9.110;2023-04-25T08:41:01;6.60;99.90
2997;DHT22;1508;48.744;9.110;2023-04-25T08:43:46;6.60;99.90
2997;DHT22;1508;48.744;9.110;2023-04-25T08:46:33;6.60;99.90
2997;DHT22;1508;48.744;9.110;2023-04-25T08:49:19;6.50;99.90
2997;DHT22;1508;48.744;9.110;2023-04-25T08:52:05;6.40;99.90
2997;DHT22;1508;48.744;9.110;2023-04-25T08:54:51;6.40;99.90
2997;DHT22;1508;48.744;9.110;2023-04-25T08:57:38;6.60;99.90
2997;DHT22;1508;48.744;9.110;2023-04-25T09:00:24;6.60;99.90
2997;DHT22;1508;48.744;9.110;2023-04-25T09:03:10;6.70;99.90
2997;DHT22;1508;48.744;9.110;2023-04-25T09:05:56;6.90;99.90
2997;DHT22;1508;48.744;9.110;2023-04-25T09:08:43;6.90;99.90
2997;DHT22;1508;48.744;9.110;2023-04-25T09:11:28;6.60;99.90
2997;DHT22;1508;48.744;9.110;2023-04-25T09:14:15;6.50;99.90
2997;DHT22;1508;48.744;9.110;2023-04-25T09:17:03;6.50;99.90
2997;DHT22;1508;48.744;9.110;2023-04-25T09:19:49;6.60;99.90
2997;DHT22;1508;48.744;9.110;2023-04-25T09:22:36;6.60;99.90
2997;DHT22;1508;48.744;9.110;2023-04-25T09:25:22;6.80;99.90
2997;DHT22;1508;48.744;9.110;2023-04-25T09:28:08;6.90;99.90
2997;DHT22;1508;48.744;9.110;2023-04-25T09:30:57;7.00;99.90
2997;DHT22;1508;48.744;9.110;2023-04-25T09:33:43;7.30;99.90
2997;DHT22;1508;48.744;9.110;2023-04-25T09:36:29;7.10;99.90
2997;DHT22;1508;48.744;9.110;2023-04-25T09:39:15;7.10;99.90
2997;DHT22;1508;48.744;9.110;2023-04-25T09:42:02;7.40;99.90
2997;DHT22;1508;48.744;9.110;2023-04-25T09:44:48;7.60;99.90
2997;DHT22;1508;48.744;9.110;2023-04-25T09:47:36;7.70;99.90
2997;DHT22;1508;48.744;9.110;2023-04-25T09:50:22;7.80;99.90
2997;DHT22;1508;48.744;9.110;2023-04-25T09:53:08;7.50;99.90
2997;DHT22;1508;48.744;9.110;2023-04-25T09:55:54;7.50;99.90
2997;DHT22;1508;48.744;9.110;2023-04-25T09:58:41;7.00;99.90
2997;DHT22;1508;48.744;9.110;2023-04-25T10:01:26;6.80;99.90
2997;DHT22;1508;48.744;9.110;2023-04-25T10:04:13;6.50;99.90
2997;DHT22;1508;48.744;9.110;2023-04-25T10:07:01;6.40;99.90
2997;DHT22;1508;48.744;9.110;2023-04-25T10:09:48;6.60;99.90
2997;DHT22;1508;48.744;9.110;2023-04-25T10:12:34;6.80;99.90
2997;DHT22;1508;48.744;9.110;2023-04-25T10:15:21;6.90;99.90
2997;DHT22;1508;48.744;9.110;2023-04-25T10:18:07;6.80;99.90
2997;DHT22;1508;48.744;9.110;2023-04-25T10:20:56;7.00;99.90
2997;DHT22;1508;48.744;9.110;2023-04-25T10:23:43;6.90;99.90
2997;DHT22;1508;48.744;9.110;2023-04-25T10:26:29;7.20;99.90
2997;DHT22;1508;48.744;9.110;2023-04-25T10:29:21;6.90;99.90
2997;DHT22;1508;48.744;9.110;2023-04-25T10:32:07;6.70;99.90
2997;DHT22;1508;48.744;9.110;2023-04-25T10:34:53;6.80;99.90
2997;DHT22;1508;48.744;9.110;2023-04-25T10:37:56;6.70;99.90
2997;DHT22;1508;48.744;9.110;2023-04-25T10:40:41;6.50;99.90
2997;DHT22;1508;48.744;9.110;2023-04-25T10:46:16;6.30;99.90
2997;DHT22;1508;48.744;9.110;2023-04-25T10:49:02;6.40;99.90
2997;DHT22;1508;48.744;9.110;2023-04-25T10:51:48;6.40;99.90
2997;DHT22;1508;48.744;9.110;2023-04-25T10:54:34;6.50;99.90
2997;DHT22;1508;48.744;9.110;2023-04-25T10:57:53;6.70;99.90
2997;DHT22;1508;48.744;9.110;2023-04-25T11:00:31;6.60;99.90
2997;DHT22;1508;48.744;9.110;2023-04-25T11:03:21;6.60;99.90
2997;DHT22;1508;48.744;9.110;2023-04-25T11:06:08;6.00;99.90
2997;DHT22;1508;48.744;9.110;2023-04-25T11:08:56;6.00;99.90
2997;DHT22;1508;48.744;9.110;2023-04-25T11:11:42;6.00;99.90
2997;DHT22;1508;48.744;9.110;2023-04-25T11:14:28;5.90;99.90
2997;DHT22;1508;48.744;9.110;2023-04-25T11:17:13;6.10;99.90
2997;DHT22;1508;48.744;9.110;2023-04-25T11:19:59;6.40;99.90
2997;DHT22;1508;48.744;9.110;2023-04-25T11:22:46;6.50;99.90
2997;DHT22;1508;48.744;9.110;2023-04-25T11:25:31;6.60;99.90
2997;DHT22;1508;48.744;9.110;2023-04-25T11:28:21;6.50;99.90
2997;DHT22;1508;48.744;9.110;2023-04-25T11:31:07;6.30;99.90
2997;DHT22;1508;48.744;9.110;2023-04-25T11:33:53;6.40;99.90
2997;DHT22;1508;48.744;9.110;2023-04-25T11:36:39;6.80;99.90
2997;DHT22;1508;48.744;9.110;2023-04-25T11:39:25;7.10;99.90
2997;DHT22;1508;48.744;9.110;2023-04-25T11:42:10;7.10;99.90
2997;DHT22;1508;48.744;9.110;2023-04-25T11:44:56;6.90;99.90
2997;DHT22;1508;48.744;9.110;2023-04-25T11:47:42;6.80;99.90
2997;DHT22;1508;48.744;9.110;2023-04-25T11:50:28;6.90;99.90
2997;DHT22;1508;48.744;9.110;2023-04-25T11:53:13;7.00;99.90
2997;DHT22;1508;48.744;9.110;2023-04-25T11:55:59;7.00;99.90
2997;DHT22;1508;48.744;9.110;2023-04-25T11:59:01;6.80;99.90
2997;DHT22;1508;48.744;9.110;2023-04-25T12:01:48;7.00;99.90
2997;DHT22;1508;48.744;9.110;2023-04-25T12:04:34;6.80;99.90
2997;DHT22;1508;48.744;9.110;2023-04-25T12:07:20;7.00;99.90
2997;DHT22;1508;48.744;9.110;2023-04-25T12:10:06;7.30;99.90
2997;DHT22;1508;48.744;9.110;2023-04-25T12:12:52;7.30;99.90
2997;DHT22;1508;48.744;9.110;2023-04-25T12:15:40;7.20;99.90
2997;DHT22;1508;48.744;9.110;2023-04-25T12:18:26;7.00;99.90
2997;DHT22;1508;48.744;9.110;2023-04-25T12:21:11;7.00;99.90
2997;DHT22;1508;48.744;9.110;2023-04-25T12:24:08;6.90;99.90
2997;DHT22;1508;48.744;9.110;2023-04-25T12:29:50;7.10;99.90
2997;DHT22;1508;48.744;9.110;2023-04-25T12:32:36;7.10;99.90
2997;DHT22;1508;48.744;9.110;2023-04-25T12:35:22;7.30;99.90
2997;DHT22;1508;48.744;9.110;2023-04-25T12:38:08;7.40;99.90
2997;DHT22;1508;48.744;9.110;2023-04-25T12:40:53;8.10;99.90
2997;DHT22;1508;48.744;9.110;2023-04-25T12:43:39;8.40;99.90
2997;DHT22;1508;48.744;9.110;2023-04-25T12:46:25;8.50;99.90
2997;DHT22;1508;48.744;9.110;2023-04-25T12:49:11;8.30;99.90
2997;DHT22;1508;48.744;9.110;2023-04-25T12:51:56;8.90;99.90
2997;DHT22;1508;48.744;9.110;2023-04-25T12:54:42;9.20;99.90
2997;DHT22;1508;48.744;9.110;2023-04-25T12:57:28;8.80;99.90
2997;DHT22;1508;48.744;9.110;2023-04-25T13:00:14;8.70;99.90
2997;DHT22;1508;48.744;9.110;2023-04-25T13:02:59;8.40;99.90
2997;DHT22;1508;48.744;9.110;2023-04-25T13:05:45;8.60;99.90
2997;DHT22;1508;48.744;9.110;2023-04-25T13:08:31;8.90;99.90
2997;DHT22;1508;48.744;9.110;2023-04-25T13:11:17;8.50;99.90
2997;DHT22;1508;48.744;9.110;2023-04-25T13:14:03;8.60;99.90
2997;DHT22;1508;48.744;9.110;2023-04-25T13:16:48;8.70;99.90
2997;DHT22;1508;48.744;9.110;2023-04-25T13:19:34;8.40;99.90
2997;DHT22;1508;48.744;9.110;2023-04-25T13:22:20;8.40;99.90
2997;DHT22;1508;48.744;9.110;2023-04-25T13:25:06;9.10;99.90
2997;DHT22;1508;48.744;9.110;2023-04-25T13:27:52;9.60;99.90
2997;DHT22;1508;48.744;9.110;2023-04-25T13:30:38;9.80;99.90
2997;DHT22;1508;48.744;9.110;2023-04-25T13:33:24;9.20;99.90
2997;DHT22;1508;48.744;9.110;2023-04-25T13:36:10;9.90;99.90
2997;DHT22;1508;48.744;9.110;2023-04-25T13:38:55;10.30;99.90
2997;DHT22;1508;48.744;9.110;2023-04-25T13:41:41;10.20;99.90
2997;DHT22;1508;48.744;9.110;2023-04-25T13:44:27;10.10;99.90
2997;DHT22;1508;48.744;9.110;2023-04-25T13:47:12;9.40;99.90
2997;DHT22;1508;48.744;9.110;2023-04-25T13:49:58;8.90;99.90
2997;DHT22;1508;48.744;9.110;2023-04-25T13:52:44;8.50;99.90
2997;DHT22;1508;48.744;9.110;2023-04-25T13:55:30;8.40;99.90
2997;DHT22;1508;48.744;9.110;2023-04-25T13:58:15;8.40;99.90
2997;DHT22;1508;48.744;9.110;2023-04-25T14:01:01;8.40;99.90
2997;DHT22;1508;48.744;9.110;2023-04-25T14:03:47;8.50;99.90
2997;DHT22;1508;48.744;9.110;2023-04-25T14:06:33;8.60;99.90
2997;DHT22;1508;48.744;9.110;2023-04-25T14:09:19;9.10;99.90
2997;DHT22;1508;48.744;9.110;2023-04-25T14:12:05;9.60;99.90
2997;DHT22;1508;48.744;9.110;2023-04-25T14:14:50;9.60;99.90
2997;DHT22;1508;48.744;9.110;2023-04-25T14:17:36;9.80;99.90
2997;DHT22;1508;48.744;9.110;2023-04-25T14:20:22;9.70;99.90
2997;DHT22;1508;48.744;9.110;2023-04-25T14:23:07;9.60;99.90
2997;DHT22;1508;48.744;9.110;2023-04-25T14:25:53;9.20;99.90
2997;DHT22;1508;48.744;9.110;2023-04-25T14:28:39;8.90;99.90
2997;DHT22;1508;48.744;9.110;2023-04-25T14:31:25;8.90;99.90
2997;DHT22;1508;48.744;9.110;2023-04-25T14:34:11;9.20;99.90
2997;DHT22;1508;48.744;9.110;2023-04-25T14:36:56;9.20;99.90
2997;DHT22;1508;48.744;9.110;2023-04-25T14:39:42;9.10;99.90
2997;DHT22;1508;48.744;9.110;2023-04-25T14:42:28;9.10;99.90
2997;DHT22;1508;48.744;9.110;2023-04-25T14:45:13;9.00;99.90
2997;DHT22;1508;48.744;9.110;2023-04-25T14:47:59;9.00;99.90
2997;DHT22;1508;48.744;9.110;2023-04-25T14:50:45;9.20;99.90
2997;DHT22;1508;48.744;9.110;2023-04-25T14:53:31;9.30;99.90
2997;DHT22;1508;48.744;9.110;2023-04-25T14:56:17;9.20;99.90
2997;DHT22;1508;48.744;9.110;2023-04-25T14:59:03;9.40;99.90
2997;DHT22;1508;48.744;9.110;2023-04-25T15:01:48;9.70;99.90
2997;DHT22;1508;48.744;9.110;2023-04-25T15:04:34;9.60;99.90
2997;DHT22;1508;48.744;9.110;2023-04-25T15:07:20;9.60;99.90
2997;DHT22;1508;48.744;9.110;2023-04-25T15:10:09;9.70;99.90
2997;DHT22;1508;48.744;9.110;2023-04-25T15:12:55;9.60;99.90
2997;DHT22;1508;48.744;9.110;2023-04-25T15:15:41;9.60;99.90
2997;DHT22;1508;48.744;9.110;2023-04-25T15:18:26;9.80;99.90
2997;DHT22;1508;48.744;9.110;2023-04-25T15:21:12;9.80;99.90
2997;DHT22;1508;48.744;9.110;2023-04-25T15:23:58;9.80;99.90
2997;DHT22;1508;48.744;9.110;2023-04-25T15:26:44;9.70;99.90
2997;DHT22;1508;48.744;9.110;2023-04-25T15:29:29;9.90;99.90
2997;DHT22;1508;48.744;9.110;2023-04-25T15:32:15;9.90;99.90
2997;DHT22;1508;48.744;9.110;2023-04-25T15:35:02;10.30;99.90
2997;DHT22;1508;48.744;9.110;2023-04-25T15:37:48;10.10;99.90
2997;DHT22;1508;48.744;9.110;2023-04-25T15:40:34;9.80;99.90
2997;DHT22;1508;48.744;9.110;2023-04-25T15:43:19;9.70;99.90
2997;DHT22;1508;48.744;9.110;2023-04-25T15:46:05;9.70;99.90
2997;DHT22;1508;48.744;9.110;2023-04-25T15:48:51;9.60;99.90
2997;DHT22;1508;48.744;9.110;2023-04-25T15:51:36;9.80;99.90
2997;DHT22;1508;48.744;9.110;2023-04-25T15:54:22;9.70;99.90
2997;DHT22;1508;48.744;9.110;2023-04-25T15:57:08;9.70;99.90
2997;DHT22;1508;48.744;9.110;2023-04-25T15:59:54;9.70;99.90
2997;DHT22;1508;48.744;9.110;2023-04-25T16:02:40;9.60;99.90
2997;DHT22;1508;48.744;9.110;2023-04-25T16:05:26;9.50;99.90
2997;DHT22;1508;48.744;9.110;2023-04-25T16:08:12;9.40;99.90
2997;DHT22;1508;48.744;9.110;2023-04-25T16:10:57;9.20;99.90
2997;DHT22;1508;48.744;9.110;2023-04-25T16:13:43;9.20;99.90
2997;DHT22;1508;48.744;9.110;2023-04-25T16:16:29;9.20;99.90
2997;DHT22;1508;48.744;9.110;2023-04-25T16:19:15;9.20;99.90
2997;DHT22;1508;48.744;9.110;2023-04-25T16:22:01;9.20;99.90
2997;DHT22;1508;48.744;9.110;2023-04-25T16:24:46;9.10;99.90
2997;DHT22;1508;48.744;9.110;2023-04-25T16:27:32;9.10;99.90
2997;DHT22;1508;48.744;9.110;2023-04-25T16:30:18;8.90;99.90
2997;DHT22;1508;48.744;9.110;2023-04-25T16:33:04;9.00;99.90
2997;DHT22;1508;48.744;9.110;2023-04-25T16:35:50;8.90;99.90
2997;DHT22;1508;48.744;9.110;2023-04-25T16:38:35;9.00;99.90
2997;DHT22;1508;48.744;9.110;2023-04-25T16:41:21;9.00;99.90
2997;DHT22;1508;48.744;9.110;2023-04-25T16:44:07;9.30;99.90
2997;DHT22;1508;48.744;9.110;2023-04-25T16:46:53;9.50;99.90
2997;DHT22;1508;48.744;9.110;2023-04-25T16:49:38;9.40;99.90
2997;DHT22;1508;48.744;9.110;2023-04-25T16:52:24;9.20;99.90
2997;DHT22;1508;48.744;9.110;2023-04-25T16:55:10;9.20;99.90
2997;DHT22;1508;48.744;9.110;2023-04-25T16:57:55;9.10;99.90
2997;DHT22;1508;48.744;9.110;2023-04-25T17:00:41;9.00;99.90
2997;DHT22;1508;48.744;9.110;2023-04-25T17:03:27;8.90;99.90
2997;DHT22;1508;48.744;9.110;2023-04-25T17:06:13;8.90;99.90
2997;DHT22;1508;48.744;9.110;2023-04-25T17:08:59;8.90;99.90
2997;DHT22;1508;48.744;9.110;2023-04-25T17:11:44;8.80;99.90
2997;DHT22;1508;48.744;9.110;2023-04-25T17:14:30;8.80;99.90
2997;DHT22;1508;48.744;9.110;2023-04-25T17:17:16;8.80;99.90
2997;DHT22;1508;48.744;9.110;2023-04-25T17:20:02;8.80;99.90
2997;DHT22;1508;48.744;9.110;2023-04-25T17:22:47;8.70;99.90
2997;DHT22;1508;48.744;9.110;2023-04-25T17:25:33;8.60;99.90
2997;DHT22;1508;48.744;9.110;2023-04-25T17:28:19;8.50;99.90
2997;DHT22;1508;48.744;9.110;2023-04-25T17:31:05;8.50;99.90
2997;DHT22;1508;48.744;9.110;2023-04-25T17:33:50;8.40;99.90
2997;DHT22;1508;48.744;9.110;2023-04-25T17:36:36;8.40;99.90
2997;DHT22;1508;48.744;9.110;2023-04-25T17:39:22;8.30;99.90
2997;DHT22;1508;48.744;9.110;2023-04-25T17:42:08;8.30;99.90
2997;DHT22;1508;48.744;9.110;2023-04-25T17:44:54;8.10;99.90
2997;DHT22;1508;48.744;9.110;2023-04-25T17:47:39;8.00;99.90
2997;DHT22;1508;48.744;9.110;2023-04-25T17:50:25;8.00;99.90
2997;DHT22;1508;48.744;9.110;2023-04-25T17:53:11;7.80;99.90
2997;DHT22;1508;48.744;9.110;2023-04-25T17:55:57;7.50;99.90
2997;DHT22;1508;48.744;9.110;2023-04-25T17:58:42;7.20;99.90
2997;DHT22;1508;48.744;9.110;2023-04-25T18:01:28;7.10;99.90
2997;DHT22;1508;48.744;9.110;2023-04-25T18:04:14;6.90;99.90
2997;DHT22;1508;48.744;9.110;2023-04-25T18:07:00;6.80;99.90
2997;DHT22;1508;48.744;9.110;2023-04-25T18:09:46;6.60;99.90
2997;DHT22;1508;48.744;9.110;2023-04-25T18:12:34;6.40;99.90
2997;DHT22;1508;48.744;9.110;2023-04-25T18:15:20;6.30;99.90
2997;DHT22;1508;48.744;9.110;2023-04-25T18:18:06;6.20;99.90
2997;DHT22;1508;48.744;9.110;2023-04-25T18:20:52;6.10;99.90
2997;DHT22;1508;48.744;9.110;2023-04-25T18:23:37;6.10;99.90
2997;DHT22;1508;48.744;9.110;2023-04-25T18:26:23;6.10;99.90
2997;DHT22;1508;48.744;9.110;2023-04-25T18:29:10;6.10;99.90
2997;DHT22;1508;48.744;9.110;2023-04-25T18:31:56;6.10;99.90
2997;DHT22;1508;48.744;9.110;2023-04-25T18:34:42;6.10;99.90
2997;DHT22;1508;48.744;9.110;2023-04-25T18:37:27;6.20;99.90
2997;DHT22;1508;48.744;9.110;2023-04-25T18:40:13;6.20;99.90
2997;DHT22;1508;48.744;9.110;2023-04-25T18:42:59;6.20;99.90
2997;DHT22;1508;48.744;9.110;2023-04-25T18:45:44;6.20;99.90
2997;DHT22;1508;48.744;9.110;2023-04-25T18:48:30;6.20;99.90
2997;DHT22;1508;48.744;9.110;2023-04-25T18:51:16;6.20;99.90
2997;DHT22;1508;48.744;9.110;2023-04-25T18:54:02;6.20;99.90
2997;DHT22;1508;48.744;9.110;2023-04-25T18:56:47;6.20;99.90
2997;DHT22;1508;48.744;9.110;2023-04-25T18:59:33;6.20;99.90
2997;DHT22;1508;48.744;9.110;2023-04-25T19:02:19;6.20;99.90
2997;DHT22;1508;48.744;9.110;2023-04-25T19:05:05;6.30;99.90
2997;DHT22;1508;48.744;9.110;2023-04-25T19:07:51;6.20;99.90
2997;DHT22;1508;48.744;9.110;2023-04-25T19:10:36;6.20;99.90
2997;DHT22;1508;48.744;9.110;2023-04-25T19:13:22;6.20;99.90
2997;DHT22;1508;48.744;9.110;2023-04-25T19:16:08;6.10;99.90
2997;DHT22;1508;48.744;9.110;2023-04-25T19:18:55;6.10;99.90
2997;DHT22;1508;48.744;9.110;2023-04-25T19:21:40;6.10;99.90